sensor_id;sensor_type;location;lat;lon;timestamp;pressure;altitude;pressure_sealevel;temperature;humidity
20023;BME280;10172;42.054;24.546;2024-03-08T00:02:13;98370.19;;;7.92;76.45
20023;BME280;10172;42.054;24.546;2024-03-08T00:04:39;98361.03;;;7.60;77.25
20023;BME280;10172;42.054;24.546;2024-03-08T00:07:04;98367.63;;;7.67;77.70
20023;BME280;10172;42.054;24.546;2024-03-08T00:09:29;98356.75;;;7.79;76.74
20023;BME280;10172;42.054;24.546;2024-03-08T00:11:56;98364.44;;;7.70;77.93
20023;BME280;10172;42.054;24.546;2024-03-08T00:14:21;98361.50;;;7.82;77.34
20023;BME280;10172;42.054;24.546;2024-03-08T00:16:47;98353.91;;;7.60;77.70
20023;BME280;10172;42.054;24.546;2024-03-08T00:19:12;98357.06;;;7.67;78.08
20023;BME280;10172;42.054;24.546;2024-03-08T00:21:37;98357.09;;;7.42;78.88
20023;BME280;10172;42.054;24.546;2024-03-08T00:24:03;98358.69;;;7.48;78.52
20023;BME280;10172;42.054;24.546;2024-03-08T00:26:29;98354.22;;;7.38;78.98
20023;BME280;10172;42.054;24.546;2024-03-08T00:28:54;98352.59;;;7.58;78.78
20023;BME280;10172;42.054;24.546;2024-03-08T00:31:20;98352.81;;;7.56;78.30
20023;BME280;10172;42.054;24.546;2024-03-08T00:33:45;98349.13;;;7.62;78.07
20023;BME280;10172;42.054;24.546;2024-03-08T00:36:11;98358.38;;;7.65;78.13
20023;BME280;10172;42.054;24.546;2024-03-08T00:38:36;98350.19;;;7.56;78.36
20023;BME280;10172;42.054;24.546;2024-03-08T00:41:01;98336.44;;;7.54;78.43
20023;BME280;10172;42.054;24.546;2024-03-08T00:43:27;98342.44;;;7.80;78.20
20023;BME280;10172;42.054;24.546;2024-03-08T00:45:52;98339.25;;;7.88;78.33
20023;BME280;10172;42.054;24.546;2024-03-08T00:48:18;98336.22;;;8.14;77.04
20023;BME280;10172;42.054;24.546;2024-03-08T00:50:43;98328.50;;;8.23;76.35
20023;BME280;10172;42.054;24.546;2024-03-08T00:53:12;98332.00;;;8.08;76.37
20023;BME280;10172;42.054;24.546;2024-03-08T00:55:38;98329.28;;;8.29;75.26
20023;BME280;10172;42.054;24.546;2024-03-08T00:58:04;98328.88;;;7.96;76.75
20023;BME280;10172;42.054;24.546;2024-03-08T01:00:29;98338.03;;;7.60;78.53
20023;BME280;10172;42.054;24.546;2024-03-08T01:02:55;98341.13;;;7.82;78.18
20023;BME280;10172;42.054;24.546;2024-03-08T01:05:20;98342.19;;;7.81;77.40
20023;BME280;10172;42.054;24.546;2024-03-08T01:07:46;98343.41;;;8.04;77.28
20023;BME280;10172;42.054;24.546;2024-03-08T01:10:11;98335.69;;;8.17;75.10
20023;BME280;10172;42.054;24.546;2024-03-08T01:12:38;98331.00;;;7.94;76.24
20023;BME280;10172;42.054;24.546;2024-03-08T01:15:03;98325.69;;;7.99;75.75
20023;BME280;10172;42.054;24.546;2024-03-08T01:17:29;98325.69;;;8.04;75.25
20023;BME280;10172;42.054;24.546;2024-03-08T01:19:54;98336.69;;;7.68;76.01
20023;BME280;10172;42.054;24.546;2024-03-08T01:22:19;98328.06;;;7.17;78.93
20023;BME280;10172;42.054;24.546;2024-03-08T01:24:45;98336.44;;;7.54;77.96
20023;BME280;10172;42.054;24.546;2024-03-08T01:27:10;98338.03;;;7.55;77.71
20023;BME280;10172;42.054;24.546;2024-03-08T01:29:37;98336.75;;;7.27;78.60
20023;BME280;10172;42.054;24.546;2024-03-08T01:32:02;98347.81;;;7.65;77.72
20023;BME280;10172;42.054;24.546;2024-03-08T01:34:28;98340.38;;;7.67;77.82
20023;BME280;10172;42.054;24.546;2024-03-08T01:36:54;98339.56;;;7.76;76.26
20023;BME280;10172;42.054;24.546;2024-03-08T01:39:21;98338.47;;;7.82;74.87
20023;BME280;10172;42.054;24.546;2024-03-08T01:41:47;98343.19;;;7.95;75.19
20023;BME280;10172;42.054;24.546;2024-03-08T01:44:12;98339.22;;;7.98;75.45
20023;BME280;10172;42.054;24.546;2024-03-08T01:46:44;98337.63;;;7.92;75.32
20023;BME280;10172;42.054;24.546;2024-03-08T01:49:10;98345.84;;;7.90;75.47
20023;BME280;10172;42.054;24.546;2024-03-08T01:51:36;98339.28;;;7.73;76.19
20023;BME280;10172;42.054;24.546;2024-03-08T01:54:03;98351.19;;;7.80;76.27
20023;BME280;10172;42.054;24.546;2024-03-08T01:56:29;98349.03;;;7.87;75.73
20023;BME280;10172;42.054;24.546;2024-03-08T01:58:57;98350.22;;;7.46;76.80
20023;BME280;10172;42.054;24.546;2024-03-08T02:01:23;98359.44;;;7.53;77.16
20023;BME280;10172;42.054;24.546;2024-03-08T02:03:49;98353.31;;;7.68;77.19
20023;BME280;10172;42.054;24.546;2024-03-08T02:06:14;98341.84;;;7.98;75.11
20023;BME280;10172;42.054;24.546;2024-03-08T02:08:45;98344.13;;;7.61;77.05
20023;BME280;10172;42.054;24.546;2024-03-08T02:11:10;98344.13;;;7.61;77.12
20023;BME280;10172;42.054;24.546;2024-03-08T02:13:36;98343.63;;;7.48;77.38
20023;BME280;10172;42.054;24.546;2024-03-08T02:16:02;98346.38;;;7.87;76.13
20023;BME280;10172;42.054;24.546;2024-03-08T02:18:31;98349.00;;;7.92;75.41
20023;BME280;10172;42.054;24.546;2024-03-08T02:21:01;98339.91;;;7.49;77.05
20023;BME280;10172;42.054;24.546;2024-03-08T02:23:27;98340.94;;;7.53;76.88
20023;BME280;10172;42.054;24.546;2024-03-08T02:25:54;98341.38;;;7.81;76.17
20023;BME280;10172;42.054;24.546;2024-03-08T02:28:20;98346.53;;;7.42;77.13
20023;BME280;10172;42.054;24.546;2024-03-08T02:30:46;98347.00;;;7.59;77.17
20023;BME280;10172;42.054;24.546;2024-03-08T02:33:16;98335.91;;;7.57;76.76
20023;BME280;10172;42.054;24.546;2024-03-08T02:35:43;98337.56;;;7.38;77.69
20023;BME280;10172;42.054;24.546;2024-03-08T02:38:14;98340.16;;;7.58;77.93
20023;BME280;10172;42.054;24.546;2024-03-08T02:40:45;98342.81;;;7.48;78.05
20023;BME280;10172;42.054;24.546;2024-03-08T02:43:11;98351.84;;;6.97;80.46
20023;BME280;10172;42.054;24.546;2024-03-08T02:45:37;98346.56;;;7.32;78.52
20023;BME280;10172;42.054;24.546;2024-03-08T02:48:04;98345.38;;;7.73;77.01
20023;BME280;10172;42.054;24.546;2024-03-08T02:50:32;98356.31;;;7.41;77.67
20023;BME280;10172;42.054;24.546;2024-03-08T02:52:57;98354.09;;;7.79;76.73
20023;BME280;10172;42.054;24.546;2024-03-08T02:55:22;98355.53;;;7.46;77.40
20023;BME280;10172;42.054;24.546;2024-03-08T02:57:51;98354.66;;;7.71;76.75
20023;BME280;10172;42.054;24.546;2024-03-08T03:00:16;98352.28;;;7.74;76.33
20023;BME280;10172;42.054;24.546;2024-03-08T03:02:44;98348.34;;;7.51;76.72
20023;BME280;10172;42.054;24.546;2024-03-08T03:05:10;98351.81;;;7.47;77.28
20023;BME280;10172;42.054;24.546;2024-03-08T03:07:36;98357.13;;;7.27;77.82
20023;BME280;10172;42.054;24.546;2024-03-08T03:10:03;98359.19;;;6.44;80.94
20023;BME280;10172;42.054;24.546;2024-03-08T03:12:29;98353.44;;;6.62;80.70
20023;BME280;10172;42.054;24.546;2024-03-08T03:14:55;98348.69;;;6.95;79.79
20023;BME280;10172;42.054;24.546;2024-03-08T03:17:24;98353.97;;;7.05;79.07
20023;BME280;10172;42.054;24.546;2024-03-08T03:19:50;98342.63;;;6.84;80.49
20023;BME280;10172;42.054;24.546;2024-03-08T03:22:19;98356.56;;;6.44;82.04
20023;BME280;10172;42.054;24.546;2024-03-08T03:24:45;98362.53;;;6.04;82.93
20023;BME280;10172;42.054;24.546;2024-03-08T03:27:14;98357.78;;;5.96;82.49
20023;BME280;10172;42.054;24.546;2024-03-08T03:29:41;98361.50;;;6.10;83.90
20023;BME280;10172;42.054;24.546;2024-03-08T03:32:13;98359.50;;;6.58;81.26
20023;BME280;10172;42.054;24.546;2024-03-08T03:34:40;98362.16;;;6.83;80.69
20023;BME280;10172;42.054;24.546;2024-03-08T03:37:06;98361.38;;;6.98;80.70
20023;BME280;10172;42.054;24.546;2024-03-08T03:39:33;98356.88;;;6.73;80.77
20023;BME280;10172;42.054;24.546;2024-03-08T03:42:13;98369.00;;;6.49;82.69
20023;BME280;10172;42.054;24.546;2024-03-08T03:44:39;98362.94;;;6.73;80.65
20023;BME280;10172;42.054;24.546;2024-03-08T03:47:05;98358.75;;;7.08;79.85
20023;BME280;10172;42.054;24.546;2024-03-08T03:49:32;98357.66;;;7.44;78.64
20023;BME280;10172;42.054;24.546;2024-03-08T03:51:58;98358.16;;;7.46;78.71
20023;BME280;10172;42.054;24.546;2024-03-08T03:54:23;98369.75;;;7.65;77.87
20023;BME280;10172;42.054;24.546;2024-03-08T03:56:49;98370.88;;;7.29;77.87
20023;BME280;10172;42.054;24.546;2024-03-08T03:59:18;98373.97;;;7.56;78.55
20023;BME280;10172;42.054;24.546;2024-03-08T04:01:43;98370.06;;;7.18;78.83
20023;BME280;10172;42.054;24.546;2024-03-08T04:04:09;98375.34;;;7.43;78.28
20023;BME280;10172;42.054;24.546;2024-03-08T04:06:34;98374.28;;;7.44;78.29
20023;BME280;10172;42.054;24.546;2024-03-08T04:08:59;98377.47;;;7.21;78.54
20023;BME280;10172;42.054;24.546;2024-03-08T04:11:25;98383.28;;;7.23;78.79
20023;BME280;10172;42.054;24.546;2024-03-08T04:13:50;98376.31;;;7.78;76.85
20023;BME280;10172;42.054;24.546;2024-03-08T04:16:15;98377.72;;;7.35;78.10
20023;BME280;10172;42.054;24.546;2024-03-08T04:18:41;98376.63;;;7.61;77.25
20023;BME280;10172;42.054;24.546;2024-03-08T04:21:06;98378.22;;;7.62;77.12
20023;BME280;10172;42.054;24.546;2024-03-08T04:23:32;98384.59;;;7.46;77.75
20023;BME280;10172;42.054;24.546;2024-03-08T04:25:59;98371.63;;;7.60;77.01
20023;BME280;10172;42.054;24.546;2024-03-08T04:28:24;98378.25;;;7.37;76.98
20023;BME280;10172;42.054;24.546;2024-03-08T04:30:50;98380.25;;;7.85;75.12
20023;BME280;10172;42.054;24.546;2024-03-08T04:33:15;98375.28;;;7.69;75.45
20023;BME280;10172;42.054;24.546;2024-03-08T04:35:42;98382.41;;;7.73;75.81
20023;BME280;10172;42.054;24.546;2024-03-08T04:38:11;98377.13;;;7.73;75.83
20023;BME280;10172;42.054;24.546;2024-03-08T04:40:36;98374.84;;;7.21;77.29
20023;BME280;10172;42.054;24.546;2024-03-08T04:43:02;98381.97;;;7.36;77.82
20023;BME280;10172;42.054;24.546;2024-03-08T04:45:27;98377.19;;;7.58;77.42
20023;BME280;10172;42.054;24.546;2024-03-08T04:47:53;98383.69;;;7.96;75.46
20023;BME280;10172;42.054;24.546;2024-03-08T04:50:18;98388.00;;;7.67;76.58
20023;BME280;10172;42.054;24.546;2024-03-08T04:52:44;98391.44;;;7.52;77.02
20023;BME280;10172;42.054;24.546;2024-03-08T04:55:09;98392.53;;;7.31;78.12
20023;BME280;10172;42.054;24.546;2024-03-08T04:57:35;98389.38;;;7.04;79.28
20023;BME280;10172;42.054;24.546;2024-03-08T05:00:02;98390.94;;;7.45;78.44
20023;BME280;10172;42.054;24.546;2024-03-08T05:02:29;98387.72;;;7.68;76.97
20023;BME280;10172;42.054;24.546;2024-03-08T05:04:54;98400.41;;;7.66;76.25
20023;BME280;10172;42.054;24.546;2024-03-08T05:07:20;98397.53;;;7.58;76.11
20023;BME280;10172;42.054;24.546;2024-03-08T05:09:45;98401.50;;;7.30;77.25
20023;BME280;10172;42.054;24.546;2024-03-08T05:12:17;98403.63;;;7.28;77.66
20023;BME280;10172;42.054;24.546;2024-03-08T05:14:42;98402.34;;;7.05;78.89
20023;BME280;10172;42.054;24.546;2024-03-08T05:17:07;98405.78;;;7.01;78.50
20023;BME280;10172;42.054;24.546;2024-03-08T05:19:32;98409.97;;;7.02;79.26
20023;BME280;10172;42.054;24.546;2024-03-08T05:21:58;98417.34;;;6.69;80.42
20023;BME280;10172;42.054;24.546;2024-03-08T05:24:24;98419.47;;;6.72;80.51
20023;BME280;10172;42.054;24.546;2024-03-08T05:26:49;98418.44;;;6.99;79.84
20023;BME280;10172;42.054;24.546;2024-03-08T05:29:15;98432.72;;;7.13;78.25
20023;BME280;10172;42.054;24.546;2024-03-08T05:31:50;98427.16;;;7.19;78.75
20023;BME280;10172;42.054;24.546;2024-03-08T05:34:19;98425.78;;;6.66;80.46
20023;BME280;10172;42.054;24.546;2024-03-08T05:36:47;98427.69;;;7.06;79.50
20023;BME280;10172;42.054;24.546;2024-03-08T05:39:17;98434.66;;;6.35;81.14
20023;BME280;10172;42.054;24.546;2024-03-08T05:41:43;98437.97;;;6.88;80.17
20023;BME280;10172;42.054;24.546;2024-03-08T05:44:10;98435.91;;;7.20;78.40
20023;BME280;10172;42.054;24.546;2024-03-08T05:46:36;98442.47;;;7.02;78.95
20023;BME280;10172;42.054;24.546;2024-03-08T05:49:02;98444.63;;;7.15;78.23
20023;BME280;10172;42.054;24.546;2024-03-08T05:51:35;98453.31;;;7.16;78.28
20023;BME280;10172;42.054;24.546;2024-03-08T05:54:04;98453.34;;;7.06;78.69
20023;BME280;10172;42.054;24.546;2024-03-08T05:56:35;98447.25;;;7.20;78.74
20023;BME280;10172;42.054;24.546;2024-03-08T05:59:01;98459.66;;;7.05;78.22
20023;BME280;10172;42.054;24.546;2024-03-08T06:01:27;98452.81;;;7.19;78.03
20023;BME280;10172;42.054;24.546;2024-03-08T06:03:53;98461.81;;;7.18;78.26
20023;BME280;10172;42.054;24.546;2024-03-08T06:06:21;98469.47;;;7.24;77.82
20023;BME280;10172;42.054;24.546;2024-03-08T06:08:47;98468.38;;;7.05;79.09
20023;BME280;10172;42.054;24.546;2024-03-08T06:11:15;98471.81;;;7.11;79.07
20023;BME280;10172;42.054;24.546;2024-03-08T06:13:40;98471.31;;;7.29;78.69
20023;BME280;10172;42.054;24.546;2024-03-08T06:16:06;98475.81;;;7.38;78.25
20023;BME280;10172;42.054;24.546;2024-03-08T06:18:36;98474.69;;;6.94;78.80
20023;BME280;10172;42.054;24.546;2024-03-08T06:21:05;98479.22;;;7.14;78.78
20023;BME280;10172;42.054;24.546;2024-03-08T06:23:32;98477.91;;;7.16;78.13
20023;BME280;10172;42.054;24.546;2024-03-08T06:25:57;98479.75;;;7.16;78.89
20023;BME280;10172;42.054;24.546;2024-03-08T06:28:23;98488.72;;;7.05;79.13
20023;BME280;10172;42.054;24.546;2024-03-08T06:30:48;98488.19;;;7.03;79.11
20023;BME280;10172;42.054;24.546;2024-03-08T06:33:13;98484.50;;;7.19;78.54
20023;BME280;10172;42.054;24.546;2024-03-08T06:35:39;98492.69;;;7.02;78.85
20023;BME280;10172;42.054;24.546;2024-03-08T06:38:04;98486.66;;;7.32;77.85
20023;BME280;10172;42.054;24.546;2024-03-08T06:40:30;98488.25;;;7.53;76.94
20023;BME280;10172;42.054;24.546;2024-03-08T06:42:55;98499.09;;;7.41;77.94
20023;BME280;10172;42.054;24.546;2024-03-08T06:45:20;98495.09;;;7.49;76.71
20023;BME280;10172;42.054;24.546;2024-03-08T06:47:47;98495.28;;;6.87;78.90
20023;BME280;10172;42.054;24.546;2024-03-08T06:50:13;98500.91;;;7.21;79.07
20023;BME280;10172;42.054;24.546;2024-03-08T06:52:40;98505.91;;;7.27;77.59
20023;BME280;10172;42.054;24.546;2024-03-08T06:55:06;98505.94;;;7.63;77.06
20023;BME280;10172;42.054;24.546;2024-03-08T06:57:32;98506.38;;;6.79;80.04
20023;BME280;10172;42.054;24.546;2024-03-08T06:59:57;98503.97;;;6.82;78.84
20023;BME280;10172;42.054;24.546;2024-03-08T07:02:23;98511.84;;;6.62;81.00
20023;BME280;10172;42.054;24.546;2024-03-08T07:04:51;98512.63;;;6.58;80.89
20023;BME280;10172;42.054;24.546;2024-03-08T07:07:18;98518.28;;;6.87;80.33
20023;BME280;10172;42.054;24.546;2024-03-08T07:09:46;98519.28;;;6.65;80.62
20023;BME280;10172;42.054;24.546;2024-03-08T07:12:11;98515.72;;;6.45;81.40
20023;BME280;10172;42.054;24.546;2024-03-08T07:14:38;98525.13;;;6.26;81.88
20023;BME280;10172;42.054;24.546;2024-03-08T07:17:08;98526.63;;;6.58;81.58
20023;BME280;10172;42.054;24.546;2024-03-08T07:19:34;98520.25;;;6.54;80.87
20023;BME280;10172;42.054;24.546;2024-03-08T07:22:00;98521.72;;;6.30;82.14
20023;BME280;10172;42.054;24.546;2024-03-08T07:24:25;98518.72;;;6.58;81.62
20023;BME280;10172;42.054;24.546;2024-03-08T07:27:09;98527.16;;;6.60;80.79
20023;BME280;10172;42.054;24.546;2024-03-08T07:29:34;98526.69;;;6.17;83.02
20023;BME280;10172;42.054;24.546;2024-03-08T07:32:00;98531.44;;;6.20;83.25
20023;BME280;10172;42.054;24.546;2024-03-08T07:34:25;98522.47;;;6.21;83.01
20023;BME280;10172;42.054;24.546;2024-03-08T07:36:51;98530.78;;;6.44;83.14
20023;BME280;10172;42.054;24.546;2024-03-08T07:39:16;98525.88;;;6.16;82.55
20023;BME280;10172;42.054;24.546;2024-03-08T07:41:42;98532.59;;;6.39;82.37
20023;BME280;10172;42.054;24.546;2024-03-08T07:44:07;98537.91;;;6.44;80.96
20023;BME280;10172;42.054;24.546;2024-03-08T07:46:33;98536.50;;;6.26;82.75
20023;BME280;10172;42.054;24.546;2024-03-08T07:49:02;98537.28;;;6.83;81.38
20023;BME280;10172;42.054;24.546;2024-03-08T07:51:28;98537.16;;;6.53;81.20
20023;BME280;10172;42.054;24.546;2024-03-08T07:53:54;98545.88;;;6.49;82.17
20023;BME280;10172;42.054;24.546;2024-03-08T07:56:20;98546.03;;;6.32;82.28
20023;BME280;10172;42.054;24.546;2024-03-08T07:58:47;98543.22;;;6.54;82.22
20023;BME280;10172;42.054;24.546;2024-03-08T08:01:16;98543.53;;;6.10;83.08
20023;BME280;10172;42.054;24.546;2024-03-08T08:03:42;98538.38;;;5.89;84.05
20023;BME280;10172;42.054;24.546;2024-03-08T08:06:07;98538.31;;;6.21;82.64
20023;BME280;10172;42.054;24.546;2024-03-08T08:08:32;98546.38;;;6.46;81.42
20023;BME280;10172;42.054;24.546;2024-03-08T08:10:58;98541.34;;;6.49;82.08
20023;BME280;10172;42.054;24.546;2024-03-08T08:13:23;98552.03;;;6.18;82.83
20023;BME280;10172;42.054;24.546;2024-03-08T08:15:49;98549.00;;;5.99;83.19
20023;BME280;10172;42.054;24.546;2024-03-08T08:18:14;98551.03;;;5.87;83.55
20023;BME280;10172;42.054;24.546;2024-03-08T08:20:40;98554.47;;;5.92;83.31
20023;BME280;10172;42.054;24.546;2024-03-08T08:23:05;98559.13;;;6.17;82.85
20023;BME280;10172;42.054;24.546;2024-03-08T08:25:31;98556.16;;;6.03;83.16
20023;BME280;10172;42.054;24.546;2024-03-08T08:27:59;98559.84;;;6.54;83.15
20023;BME280;10172;42.054;24.546;2024-03-08T08:30:25;98556.91;;;7.13;79.42
20023;BME280;10172;42.054;24.546;2024-03-08T08:32:50;98549.53;;;7.30;78.96
20023;BME280;10172;42.054;24.546;2024-03-08T08:35:15;98558.00;;;7.27;78.71
20023;BME280;10172;42.054;24.546;2024-03-08T08:37:41;98551.16;;;7.51;77.18
20023;BME280;10172;42.054;24.546;2024-03-08T08:40:07;98559.28;;;7.09;78.12
20023;BME280;10172;42.054;24.546;2024-03-08T08:42:40;98555.56;;;7.00;79.26
20023;BME280;10172;42.054;24.546;2024-03-08T08:45:06;98557.22;;;7.46;78.96
20023;BME280;10172;42.054;24.546;2024-03-08T08:47:37;98554.59;;;7.41;76.94
20023;BME280;10172;42.054;24.546;2024-03-08T08:50:04;98556.19;;;7.63;76.70
20023;BME280;10172;42.054;24.546;2024-03-08T08:52:32;98550.88;;;7.47;76.60
20023;BME280;10172;42.054;24.546;2024-03-08T08:54:57;98557.22;;;7.46;75.78
20023;BME280;10172;42.054;24.546;2024-03-08T08:57:23;98562.25;;;7.43;77.21
20023;BME280;10172;42.054;24.546;2024-03-08T08:59:49;98554.84;;;7.35;77.04
20023;BME280;10172;42.054;24.546;2024-03-08T09:02:15;98556.69;;;7.39;76.26
20023;BME280;10172;42.054;24.546;2024-03-08T09:04:42;98562.00;;;7.55;76.92
20023;BME280;10172;42.054;24.546;2024-03-08T09:07:07;98554.88;;;7.95;75.05
20023;BME280;10172;42.054;24.546;2024-03-08T09:09:33;98559.09;;;7.91;75.48
20023;BME280;10172;42.054;24.546;2024-03-08T09:11:58;98562.03;;;7.70;75.10
20023;BME280;10172;42.054;24.546;2024-03-08T09:14:23;98557.50;;;7.95;74.39
20023;BME280;10172;42.054;24.546;2024-03-08T09:16:51;98550.38;;;7.76;75.72
20023;BME280;10172;42.054;24.546;2024-03-08T09:19:16;98560.69;;;7.97;73.73
20023;BME280;10172;42.054;24.546;2024-03-08T09:21:42;98560.09;;;8.26;73.74
20023;BME280;10172;42.054;24.546;2024-03-08T09:24:07;98555.38;;;7.92;72.45
20023;BME280;10172;42.054;24.546;2024-03-08T09:26:33;98555.63;;;8.11;74.49
20023;BME280;10172;42.054;24.546;2024-03-08T09:28:59;98564.81;;;8.59;72.79
20023;BME280;10172;42.054;24.546;2024-03-08T09:31:24;98558.50;;;8.40;72.50
20023;BME280;10172;42.054;24.546;2024-03-08T09:33:51;98560.06;;;8.56;71.29
20023;BME280;10172;42.054;24.546;2024-03-08T09:36:16;98557.31;;;8.86;70.18
20023;BME280;10172;42.054;24.546;2024-03-08T09:38:42;98553.09;;;8.75;70.59
20023;BME280;10172;42.054;24.546;2024-03-08T09:41:08;98568.09;;;8.05;73.36
20023;BME280;10172;42.054;24.546;2024-03-08T09:43:35;98566.47;;;8.40;73.02
20023;BME280;10172;42.054;24.546;2024-03-08T09:46:03;98560.53;;;8.68;71.22
20023;BME280;10172;42.054;24.546;2024-03-08T09:48:28;98566.78;;;9.02;71.13
20023;BME280;10172;42.054;24.546;2024-03-08T09:50:54;98566.22;;;9.10;69.26
20023;BME280;10172;42.054;24.546;2024-03-08T09:53:20;98569.38;;;9.12;67.76
20023;BME280;10172;42.054;24.546;2024-03-08T09:55:47;98567.88;;;8.96;67.83
20023;BME280;10172;42.054;24.546;2024-03-08T09:58:15;98560.78;;;8.81;68.53
20023;BME280;10172;42.054;24.546;2024-03-08T10:00:53;98567.97;;;8.66;70.49
20023;BME280;10172;42.054;24.546;2024-03-08T10:03:21;98548.88;;;8.79;70.26
20023;BME280;10172;42.054;24.546;2024-03-08T10:05:47;98552.19;;;9.05;69.33
20023;BME280;10172;42.054;24.546;2024-03-08T10:08:14;98560.41;;;9.03;68.12
20023;BME280;10172;42.054;24.546;2024-03-08T10:10:39;98559.97;;;8.81;71.44
20023;BME280;10172;42.054;24.546;2024-03-08T10:13:09;98552.31;;;9.28;69.36
20023;BME280;10172;42.054;24.546;2024-03-08T10:15:36;98553.50;;;9.07;70.11
20023;BME280;10172;42.054;24.546;2024-03-08T10:18:01;98552.38;;;9.18;70.74
20023;BME280;10172;42.054;24.546;2024-03-08T10:20:33;98551.03;;;9.21;69.63
20023;BME280;10172;42.054;24.546;2024-03-08T10:23:02;98549.19;;;9.60;69.46
20023;BME280;10172;42.054;24.546;2024-03-08T10:25:33;98541.41;;;10.02;67.99
20023;BME280;10172;42.054;24.546;2024-03-08T10:27:59;98543.53;;;10.00;68.84
20023;BME280;10172;42.054;24.546;2024-03-08T10:30:24;98544.56;;;10.33;65.39
20023;BME280;10172;42.054;24.546;2024-03-08T10:32:49;98546.09;;;10.39;64.25
20023;BME280;10172;42.054;24.546;2024-03-08T10:35:17;98550.22;;;10.74;63.35
20023;BME280;10172;42.054;24.546;2024-03-08T10:37:47;98548.47;;;9.83;65.22
20023;BME280;10172;42.054;24.546;2024-03-08T10:40:16;98541.09;;;10.04;63.48
20023;BME280;10172;42.054;24.546;2024-03-08T10:42:56;98543.16;;;10.17;62.51
20023;BME280;10172;42.054;24.546;2024-03-08T10:47:55;98526.31;;;9.98;64.51
20023;BME280;10172;42.054;24.546;2024-03-08T10:50:24;98537.38;;;9.76;65.53
20023;BME280;10172;42.054;24.546;2024-03-08T10:52:51;98539.00;;;10.30;64.74
20023;BME280;10172;42.054;24.546;2024-03-08T10:55:17;98535.94;;;10.17;64.23
20023;BME280;10172;42.054;24.546;2024-03-08T10:57:46;98532.69;;;9.97;63.63
20023;BME280;10172;42.054;24.546;2024-03-08T11:00:13;98531.22;;;9.81;65.90
20023;BME280;10172;42.054;24.546;2024-03-08T11:02:42;98529.91;;;10.12;66.64
20023;BME280;10172;42.054;24.546;2024-03-08T11:05:31;98539.91;;;10.20;66.61
20023;BME280;10172;42.054;24.546;2024-03-08T11:08:01;98541.06;;;10.38;64.55
20023;BME280;10172;42.054;24.546;2024-03-08T11:10:26;98526.31;;;9.98;65.81
20023;BME280;10172;42.054;24.546;2024-03-08T11:12:52;98533.72;;;10.53;63.33
20023;BME280;10172;42.054;24.546;2024-03-08T11:15:17;98530.09;;;10.20;62.93
20023;BME280;10172;42.054;24.546;2024-03-08T11:17:50;98522.06;;;10.49;62.64
20023;BME280;10172;42.054;24.546;2024-03-08T11:20:17;98528.75;;;10.47;64.18
20023;BME280;10172;42.054;24.546;2024-03-08T11:22:54;98511.72;;;10.71;63.82
20023;BME280;10172;42.054;24.546;2024-03-08T11:25:40;98512.78;;;10.70;64.73
20023;BME280;10172;42.054;24.546;2024-03-08T11:28:11;98520.09;;;10.12;66.02
20023;BME280;10172;42.054;24.546;2024-03-08T11:33:30;98508.28;;;10.89;63.33
20023;BME280;10172;42.054;24.546;2024-03-08T11:36:11;98501.47;;;11.21;63.62
20023;BME280;10172;42.054;24.546;2024-03-08T11:38:46;98499.25;;;11.28;61.56
20023;BME280;10172;42.054;24.546;2024-03-08T11:41:14;98502.16;;;10.89;61.33
20023;BME280;10172;42.054;24.546;2024-03-08T11:43:40;98495.59;;;11.05;60.95
20023;BME280;10172;42.054;24.546;2024-03-08T11:46:14;98495.41;;;11.15;60.75
20023;BME280;10172;42.054;24.546;2024-03-08T11:48:41;98494.19;;;11.45;57.35
20023;BME280;10172;42.054;24.546;2024-03-08T11:51:13;98491.56;;;11.26;54.51
20023;BME280;10172;42.054;24.546;2024-03-08T11:53:40;98487.19;;;11.68;55.69
20023;BME280;10172;42.054;24.546;2024-03-08T11:56:10;98488.22;;;11.85;54.87
20023;BME280;10172;42.054;24.546;2024-03-08T11:58:37;98475.31;;;12.19;52.93
20023;BME280;10172;42.054;24.546;2024-03-08T12:01:07;98476.03;;;12.52;52.24
20023;BME280;10172;42.054;24.546;2024-03-08T12:03:34;98479.31;;;11.25;53.51
20023;BME280;10172;42.054;24.546;2024-03-08T12:06:00;98481.06;;;11.48;56.02
20023;BME280;10172;42.054;24.546;2024-03-08T12:08:27;98471.16;;;11.86;52.49
20023;BME280;10172;42.054;24.546;2024-03-08T12:10:56;98476.75;;;12.31;54.18
20023;BME280;10172;42.054;24.546;2024-03-08T12:13:32;98468.09;;;12.88;50.01
20023;BME280;10172;42.054;24.546;2024-03-08T12:15:59;98483.72;;;12.54;49.60
20023;BME280;10172;42.054;24.546;2024-03-08T12:18:28;98476.72;;;12.44;51.10
20023;BME280;10172;42.054;24.546;2024-03-08T12:21:12;98471.78;;;11.65;54.95
20023;BME280;10172;42.054;24.546;2024-03-08T12:23:43;98472.66;;;12.74;51.39
20023;BME280;10172;42.054;24.546;2024-03-08T12:26:14;98478.84;;;12.69;52.39
20023;BME280;10172;42.054;24.546;2024-03-08T12:28:41;98468.44;;;12.18;54.73
20023;BME280;10172;42.054;24.546;2024-03-08T12:31:08;98465.47;;;12.20;55.99
20023;BME280;10172;42.054;24.546;2024-03-08T12:33:52;98469.91;;;11.97;58.24
20023;BME280;10172;42.054;24.546;2024-03-08T12:36:19;98482.38;;;11.51;58.96
20023;BME280;10172;42.054;24.546;2024-03-08T12:38:45;98477.81;;;11.70;59.35
20023;BME280;10172;42.054;24.546;2024-03-08T12:41:13;98467.72;;;11.86;58.07
20023;BME280;10172;42.054;24.546;2024-03-08T12:43:39;98472.56;;;11.84;58.16
20023;BME280;10172;42.054;24.546;2024-03-08T12:46:04;98473.31;;;11.52;58.40
20023;BME280;10172;42.054;24.546;2024-03-08T12:48:36;98465.06;;;11.67;58.05
20023;BME280;10172;42.054;24.546;2024-03-08T12:51:08;98461.00;;;11.56;58.88
20023;BME280;10172;42.054;24.546;2024-03-08T12:53:34;98469.63;;;12.26;56.61
20023;BME280;10172;42.054;24.546;2024-03-08T12:55:59;98466.84;;;12.04;57.60
20023;BME280;10172;42.054;24.546;2024-03-08T12:58:25;98454.78;;;12.61;56.95
20023;BME280;10172;42.054;24.546;2024-03-08T13:00:51;98459.16;;;12.57;55.15
20023;BME280;10172;42.054;24.546;2024-03-08T13:03:17;98460.88;;;12.75;55.13